createdAt,value
2019-02-28T00:00:13.152Z,59.37
2019-02-28T00:02:41.551Z,59.87
2019-02-28T00:05:10.041Z,57.47
2019-02-28T00:07:38.509Z,62.20
2019-02-28T00:10:08.023Z,61.47
2019-02-28T00:12:36.499Z,64.37
2019-02-28T00:15:09.178Z,65.90
2019-02-28T00:17:42.704Z,65.43
2019-02-28T00:20:08.871Z,66.60
2019-02-28T00:22:37.287Z,67.70
2019-02-28T00:25:07.871Z,69.93
2019-02-28T00:27:36.282Z,68.90
2019-02-28T00:30:07.491Z,66.57
2019-02-28T00:32:35.882Z,66.17
2019-02-28T00:35:05.727Z,68.50
2019-02-28T00:37:34.110Z,73.30
2019-02-28T00:40:02.520Z,69.20
2019-02-28T00:42:30.931Z,67.63
2019-02-28T00:45:02.138Z,73.43
2019-02-28T00:47:29.472Z,72.30
2019-02-28T00:49:57.869Z,68.70
2019-02-28T00:52:26.318Z,71.80
2019-02-28T00:54:54.731Z,65.47
2019-02-28T00:57:23.796Z,68.50
2019-02-28T00:59:53.159Z,72.03
2019-02-28T01:02:21.571Z,66.67
2019-02-28T01:04:49.949Z,64.67
2019-02-28T01:07:18.395Z,70.73
2019-02-28T01:09:46.800Z,71.93
2019-02-28T01:12:18.875Z,68.43
2019-02-28T01:14:45.268Z,77.37
2019-02-28T01:17:13.636Z,65.83
2019-02-28T01:19:42.370Z,75.20
2019-02-28T01:22:10.863Z,75.60
2019-02-28T01:24:39.242Z,73.43
2019-02-28T01:27:07.667Z,74.00
2019-02-28T01:29:36.428Z,71.60
2019-02-28T01:32:04.911Z,71.03
2019-02-28T01:34:33.326Z,71.73
2019-02-28T01:37:01.717Z,74.70
2019-02-28T01:39:30.793Z,73.53
2019-02-28T01:41:59.353Z,75.13
2019-02-28T01:44:27.757Z,77.93
2019-02-28T01:46:56.128Z,69.90
2019-02-28T01:49:26.030Z,72.37
2019-02-28T01:51:54.699Z,72.77
2019-02-28T01:54:25.123Z,80.80
2019-02-28T01:56:53.117Z,76.83
2019-02-28T01:59:22.216Z,84.97
2019-02-28T02:01:50.645Z,74.63
2019-02-28T02:04:19.018Z,75.80
2019-02-28T02:06:47.414Z,77.23
2019-02-28T02:09:18.513Z,78.43
2019-02-28T02:11:46.915Z,79.73
2019-02-28T02:14:15.335Z,87.00
2019-02-28T02:16:43.750Z,86.83
2019-02-28T02:19:17.587Z,84.37
2019-02-28T02:21:42.185Z,83.90
2019-02-28T02:24:10.598Z,83.00
2019-02-28T02:26:39.004Z,87.17
2019-02-28T02:29:07.418Z,86.83
2019-02-28T02:31:35.797Z,82.30
2019-02-28T02:34:04.231Z,82.50
2019-02-28T02:36:32.770Z,82.33
2019-02-28T02:39:01.276Z,87.97
2019-02-28T02:41:33.411Z,87.40
2019-02-28T02:43:59.709Z,82.83
2019-02-28T02:46:28.102Z,79.93
2019-02-28T02:48:56.521Z,83.53
2019-02-28T02:51:24.928Z,77.47
2019-02-28T02:53:53.398Z,82.33
2019-02-28T02:56:21.793Z,81.40
2019-02-28T02:58:50.189Z,81.50
2019-02-28T03:01:22.994Z,88.30
2019-02-28T03:03:48.634Z,87.80
2019-02-28T03:06:17.038Z,82.57
2019-02-28T03:08:45.420Z,84.30
2019-02-28T03:11:13.848Z,85.33
2019-02-28T03:13:43.976Z,81.33
2019-02-28T03:16:12.264Z,84.37
2019-02-28T03:18:40.653Z,88.70
2019-02-28T03:21:09.096Z,100.87
2019-02-28T03:23:39.741Z,94.93
2019-02-28T03:26:07.492Z,93.40
2019-02-28T03:28:35.976Z,98.43
2019-02-28T03:31:11.945Z,98.27
2019-02-28T03:33:34.413Z,98.17
2019-02-28T03:36:02.789Z,97.00
2019-02-28T03:38:31.206Z,99.97
2019-02-28T03:40:59.579Z,88.93
2019-02-28T03:43:27.991Z,98.90
2019-02-28T03:45:56.415Z,86.40
2019-02-28T03:48:24.837Z,89.60
2019-02-28T03:50:55.296Z,98.43
2019-02-28T03:53:23.344Z,91.97
2019-02-28T03:55:51.749Z,94.10
2019-02-28T03:58:20.155Z,93.47
2019-02-28T04:00:48.561Z,91.97
2019-02-28T04:03:17.050Z,95.23
2019-02-28T04:05:45.500Z,87.73
2019-02-28T04:08:13.934Z,89.13
2019-02-28T04:10:42.322Z,90.13
2019-02-28T04:13:10.739Z,79.90
2019-02-28T04:15:39.156Z,87.63
2019-02-28T04:18:08.564Z,82.47
2019-02-28T04:20:37.921Z,80.77
2019-02-28T04:23:06.466Z,81.20
2019-02-28T04:25:34.873Z,75.30
2019-02-28T04:28:03.243Z,82.37
2019-02-28T04:30:33.293Z,82.17
2019-02-28T04:33:02.515Z,79.40
2019-02-28T04:35:31.104Z,81.83
2019-02-28T04:37:59.473Z,81.27
2019-02-28T04:40:27.850Z,85.43
2019-02-28T04:42:56.265Z,83.80
2019-02-28T04:45:26.249Z,84.93
2019-02-28T04:47:54.718Z,85.63
2019-02-28T04:50:23.090Z,93.87
2019-02-28T04:52:51.500Z,94.40
2019-02-28T04:55:19.880Z,85.83
2019-02-28T04:57:48.285Z,85.40
2019-02-28T05:00:18.145Z,84.60
2019-02-28T05:02:46.519Z,87.30
2019-02-28T05:05:15.105Z,77.30
2019-02-28T05:07:43.518Z,73.40
2019-02-28T05:10:12.243Z,78.60
2019-02-28T05:12:41.044Z,89.30
2019-02-28T05:15:14.426Z,87.60
2019-02-28T05:17:42.823Z,80.53
2019-02-28T05:20:12.206Z,84.20
2019-02-28T05:22:40.941Z,83.93
2019-02-28T05:25:10.698Z,90.73
2019-02-28T05:27:39.078Z,88.40
2019-02-28T05:30:19.523Z,99.87
2019-02-28T05:32:47.224Z,99.23
2019-02-28T05:35:15.643Z,111.23
2019-02-28T05:37:48.303Z,101.30
2019-02-28T05:40:17.206Z,99.40
2019-02-28T05:42:45.586Z,101.90
2019-02-28T05:45:14.582Z,105.23
2019-02-28T05:47:46.938Z,103.93
2019-02-28T05:50:16.764Z,98.83
2019-02-28T05:52:44.156Z,106.70
2019-02-28T05:55:12.537Z,94.43
2019-02-28T05:57:43.266Z,107.30
2019-02-28T06:00:13.732Z,115.70
2019-02-28T06:02:42.149Z,95.17
2019-02-28T06:05:11.851Z,109.60
2019-02-28T06:07:40.566Z,95.73
2019-02-28T06:10:30.017Z,92.03
2019-02-28T06:12:58.403Z,89.93
2019-02-28T06:15:28.896Z,99.60
2019-02-28T06:17:56.850Z,93.20
2019-02-28T06:20:25.253Z,98.03
2019-02-28T06:22:53.666Z,97.27
2019-02-28T06:25:25.314Z,96.47
2019-02-28T06:27:52.140Z,87.20
2019-02-28T06:30:20.549Z,95.13
2019-02-28T06:32:48.943Z,93.17
2019-02-28T06:35:20.239Z,89.53
2019-02-28T06:37:47.373Z,89.13
2019-02-28T06:40:16.515Z,89.13
2019-02-28T06:42:46.921Z,98.97
2019-02-28T06:45:16.416Z,101.47
2019-02-28T06:47:47.960Z,99.77
2019-02-28T06:50:15.426Z,95.20
2019-02-28T06:52:44.179Z,101.63
2019-02-28T06:55:14.241Z,99.03
2019-02-28T06:57:42.637Z,99.73
2019-02-28T07:00:17.388Z,99.50
2019-02-28T07:02:45.788Z,98.20
2019-02-28T07:05:14.195Z,104.97
2019-02-28T07:07:45.612Z,109.60
2019-02-28T07:10:15.389Z,105.87
2019-02-28T07:12:43.796Z,111.17
2019-02-28T07:15:12.255Z,113.33
2019-02-28T07:17:42.743Z,114.37
2019-02-28T07:20:13.137Z,115.60
2019-02-28T07:22:41.520Z,114.60
2019-02-28T07:25:12.605Z,116.67
2019-02-28T07:27:40.975Z,121.07
2019-02-28T07:30:20.413Z,112.73
2019-02-28T07:32:48.837Z,122.37
2019-02-28T07:35:17.253Z,122.60
2019-02-28T07:37:45.619Z,126.07
2019-02-28T07:40:16.123Z,115.17
2019-02-28T07:42:45.275Z,124.27
2019-02-28T07:45:14.529Z,122.57
2019-02-28T07:47:43.019Z,122.90
2019-02-28T07:50:15.880Z,128.73
2019-02-28T07:52:44.283Z,120.17
2019-02-28T07:55:17.262Z,122.73
2019-02-28T07:57:51.185Z,128.43
2019-02-28T08:00:22.575Z,120.47
2019-02-28T08:02:50.978Z,124.90
2019-02-28T08:05:19.396Z,127.10
2019-02-28T08:07:51.906Z,123.67
2019-02-28T08:10:20.902Z,128.57
2019-02-28T08:12:49.287Z,126.10
2019-02-28T08:15:22.958Z,124.73
2019-02-28T08:17:51.411Z,125.27
2019-02-28T08:20:20.083Z,121.63
2019-02-28T08:22:48.568Z,126.57
2019-02-28T08:25:16.964Z,126.43
2019-02-28T08:27:45.354Z,118.80
2019-02-28T08:30:22.584Z,124.47
2019-02-28T08:32:51.119Z,124.00
2019-02-28T08:35:19.539Z,134.63
2019-02-28T08:37:47.996Z,129.37
2019-02-28T08:40:21.764Z,119.80
2019-02-28T08:42:50.146Z,120.63
2019-02-28T08:45:18.650Z,124.17
2019-02-28T08:47:47.139Z,123.27
2019-02-28T08:50:23.424Z,121.87
2019-02-28T08:52:53.385Z,125.10
2019-02-28T08:55:28.241Z,122.47
2019-02-28T08:57:55.702Z,125.67
2019-02-28T09:00:22.819Z,125.60
2019-02-28T09:02:53.062Z,121.80
2019-02-28T09:05:25.413Z,123.30
2019-02-28T09:07:52.032Z,133.90
2019-02-28T09:10:22.956Z,129.27
2019-02-28T09:12:51.377Z,130.63
2019-02-28T09:15:19.941Z,130.00
2019-02-28T09:17:48.704Z,121.53
2019-02-28T09:20:17.287Z,131.53
2019-02-28T09:22:45.691Z,119.60
2019-02-28T09:25:21.414Z,125.73
2019-02-28T09:27:46.588Z,127.47
2019-02-28T09:30:18.240Z,124.07
2019-02-28T09:32:48.303Z,121.73
2019-02-28T09:35:16.791Z,118.73
2019-02-28T09:37:45.239Z,121.60
2019-02-28T09:40:14.963Z,130.90
2019-02-28T09:42:44.546Z,126.93
2019-02-28T09:45:15.980Z,124.30
2019-02-28T09:47:44.362Z,125.37
2019-02-28T09:50:19.367Z,123.80
2019-02-28T09:52:47.626Z,121.40
2019-02-28T09:55:16.056Z,121.10
2019-02-28T09:57:44.536Z,123.63
2019-02-28T10:00:27.492Z,130.23
2019-02-28T10:02:56.200Z,119.60
2019-02-28T10:05:24.589Z,114.27
2019-02-28T10:07:53.005Z,124.43
2019-02-28T10:10:33.332Z,120.67
2019-02-28T10:13:01.746Z,118.93
2019-02-28T10:15:30.228Z,118.13
2019-02-28T10:18:00.772Z,117.97
2019-02-28T10:20:30.023Z,111.27
2019-02-28T10:22:58.434Z,104.00
2019-02-28T10:25:26.848Z,108.00
2019-02-28T10:27:55.278Z,110.70
2019-02-28T10:30:31.654Z,107.83
2019-02-28T10:32:54.753Z,102.47
2019-02-28T10:35:23.158Z,98.80
2019-02-28T10:37:57.057Z,84.00
2019-02-28T10:40:27.719Z,82.83
2019-02-28T10:42:56.125Z,80.60
2019-02-28T10:45:25.047Z,75.30
2019-02-28T10:47:53.501Z,83.07
2019-02-28T10:50:25.852Z,88.20
2019-02-28T10:52:54.459Z,82.20
2019-02-28T10:55:23.347Z,74.60
2019-02-28T10:57:51.898Z,66.23
2019-02-28T11:00:29.480Z,63.43
2019-02-28T11:02:57.790Z,70.60
2019-02-28T11:05:30.614Z,76.47
2019-02-28T11:07:59.099Z,80.33
2019-02-28T11:10:35.517Z,84.77
2019-02-28T11:13:02.723Z,95.57
2019-02-28T11:15:31.281Z,96.70
2019-02-28T11:17:59.686Z,98.57
2019-02-28T11:20:28.201Z,102.07
2019-02-28T11:22:56.571Z,109.40
2019-02-28T11:25:26.217Z,109.47
2019-02-28T11:27:54.718Z,112.80
2019-02-28T11:30:27.651Z,115.27
2019-02-28T11:32:56.108Z,111.80
2019-02-28T11:35:24.491Z,114.00
2019-02-28T11:37:52.904Z,112.10
2019-02-28T11:40:23.101Z,119.80
2019-02-28T11:42:51.503Z,108.13
2019-02-28T11:45:25.696Z,104.47
2019-02-28T11:47:55.678Z,96.13
2019-02-28T11:50:24.072Z,102.07
2019-02-28T11:52:52.550Z,100.97
2019-02-28T11:55:21.333Z,102.90
2019-02-28T11:57:49.818Z,107.00
2019-02-28T12:00:27.377Z,104.50
2019-02-28T12:02:59.924Z,102.13
2019-02-28T12:05:26.259Z,107.50
2019-02-28T12:07:54.645Z,99.23
2019-02-28T12:10:23.272Z,87.80
2019-02-28T12:12:51.653Z,91.33
2019-02-28T12:15:22.700Z,89.70
2019-02-28T12:17:51.198Z,79.73
2019-02-28T12:20:25.867Z,85.77
2019-02-28T12:22:50.040Z,79.00
2019-02-28T12:25:20.028Z,69.03
2019-02-28T12:27:48.415Z,66.70
2019-02-28T12:30:21.778Z,69.53
2019-02-28T12:32:48.875Z,68.23
2019-02-28T12:35:17.344Z,61.13
2019-02-28T12:37:45.732Z,66.03
2019-02-28T12:40:19.449Z,61.70
2019-02-28T12:42:47.840Z,50.40
2019-02-28T12:45:21.174Z,51.57
2019-02-28T12:47:49.155Z,55.90
2019-02-28T12:50:17.540Z,46.53
2019-02-28T12:52:48.971Z,44.33
2019-02-28T12:55:18.290Z,45.63
2019-02-28T12:57:46.679Z,41.10
2019-02-28T13:00:27.159Z,42.50
2019-02-28T13:02:55.553Z,35.57
2019-02-28T13:05:23.954Z,37.07
2019-02-28T13:07:52.367Z,38.43
2019-02-28T13:10:26.758Z,36.33
2019-02-28T13:12:51.954Z,32.80
2019-02-28T13:15:20.925Z,30.10
2019-02-28T13:17:49.351Z,37.07
2019-02-28T13:20:20.644Z,25.53
2019-02-28T13:22:49.103Z,28.07
2019-02-28T13:25:19.357Z,29.10
2019-02-28T13:27:47.700Z,26.27
2019-02-28T13:30:27.003Z,31.27
2019-02-28T13:32:55.428Z,23.83
2019-02-28T13:35:32.647Z,26.33
2019-02-28T13:38:01.071Z,26.90
2019-02-28T13:40:29.463Z,28.27
2019-02-28T13:42:57.849Z,35.27
2019-02-28T13:45:26.626Z,31.87
2019-02-28T13:47:55.050Z,38.00
2019-02-28T13:50:32.554Z,30.30
2019-02-28T13:53:02.992Z,36.67
2019-02-28T13:55:31.347Z,33.67
2019-02-28T13:57:59.765Z,28.33
2019-02-28T14:00:29.781Z,31.10
2019-02-28T14:03:00.853Z,28.23
2019-02-28T14:05:29.263Z,32.17
2019-02-28T14:07:57.681Z,33.07
2019-02-28T14:10:29.722Z,25.00
2019-02-28T14:12:57.987Z,40.03
2019-02-28T14:15:32.327Z,27.97
2019-02-28T14:18:00.699Z,34.77
2019-02-28T14:20:29.131Z,29.17
2019-02-28T14:22:57.497Z,26.17
2019-02-28T14:25:26.424Z,26.00
2019-02-28T14:27:56.830Z,30.57
2019-02-28T14:30:25.797Z,31.17
2019-02-28T14:32:54.277Z,33.97
2019-02-28T14:35:27.382Z,25.57
2019-02-28T14:37:56.916Z,23.90
2019-02-28T14:40:25.452Z,22.00
2019-02-28T14:42:53.861Z,26.93
2019-02-28T14:45:24.713Z,24.50
2019-02-28T14:47:56.789Z,23.70
2019-02-28T14:50:23.230Z,25.10
2019-02-28T14:52:58.437Z,22.90
2019-02-28T14:55:29.345Z,24.67
2019-02-28T14:57:57.038Z,24.30
2019-02-28T15:00:30.812Z,21.80
2019-02-28T15:03:02.845Z,21.63
2019-02-28T15:05:33.053Z,29.73
2019-02-28T15:08:01.422Z,25.13
2019-02-28T15:10:30.392Z,25.47
2019-02-28T15:13:00.850Z,28.77
2019-02-28T15:15:29.336Z,25.53
2019-02-28T15:17:57.719Z,25.00
2019-02-28T15:20:31.585Z,21.23
2019-02-28T15:22:59.422Z,27.57
2019-02-28T15:25:30.327Z,25.63
2019-02-28T15:27:58.718Z,28.23
2019-02-28T15:30:38.295Z,24.33
2019-02-28T15:33:06.695Z,25.40
2019-02-28T15:35:35.079Z,27.67
2019-02-28T15:38:05.797Z,31.70
2019-02-28T15:40:44.921Z,30.67
2019-02-28T15:43:17.010Z,23.27
2019-02-28T15:45:43.350Z,23.27
2019-02-28T15:48:11.763Z,31.63
2019-02-28T15:50:40.139Z,31.33
2019-02-28T15:53:11.410Z,21.90
2019-02-28T15:55:38.588Z,23.83
2019-02-28T15:58:07.252Z,31.20
2019-02-28T16:00:36.463Z,29.60
2019-02-28T16:03:05.109Z,28.57
2019-02-28T16:05:33.532Z,27.57
2019-02-28T16:08:08.726Z,31.30
2019-02-28T16:10:33.068Z,35.17
2019-02-28T16:13:01.389Z,32.60
2019-02-28T16:15:29.866Z,28.83
2019-02-28T16:17:58.282Z,33.50
2019-02-28T16:20:28.517Z,30.13
2019-02-28T16:22:56.786Z,25.40
2019-02-28T16:25:28.440Z,29.30
2019-02-28T16:27:57.429Z,33.57
2019-02-28T16:30:28.736Z,38.87
2019-02-28T16:32:55.964Z,22.90
2019-02-28T16:35:24.439Z,32.73
2019-02-28T16:37:52.872Z,29.40
2019-02-28T16:40:26.905Z,28.30
2019-02-28T16:42:54.075Z,30.47
2019-02-28T16:45:37.635Z,34.73
2019-02-28T16:48:06.560Z,29.20
2019-02-28T16:50:35.008Z,34.67
2019-02-28T16:53:03.497Z,39.20
2019-02-28T16:55:31.932Z,32.33
2019-02-28T16:58:00.296Z,31.43
2019-02-28T17:00:28.746Z,28.03
2019-02-28T17:02:57.131Z,30.20
2019-02-28T17:05:28.029Z,35.67
2019-02-28T17:07:55.590Z,24.27
2019-02-28T17:10:40.174Z,33.07
2019-02-28T17:13:14.993Z,18.17
2019-02-28T17:16:01.786Z,19.03
2019-02-28T17:18:31.928Z,23.03
2019-02-28T17:21:00.310Z,22.87
2019-02-28T17:23:28.684Z,18.27
2019-02-28T17:25:57.634Z,24.47
2019-02-28T17:28:33.603Z,21.37
2019-02-28T17:31:19.776Z,18.67
2019-02-28T17:33:48.252Z,23.73
2019-02-28T17:36:16.677Z,15.53
2019-02-28T17:38:45.140Z,21.13
2019-02-28T17:41:13.544Z,21.20
2019-02-28T17:43:41.968Z,19.37
2019-02-28T17:46:13.509Z,13.67
2019-02-28T17:49:07.876Z,12.27
2019-02-28T17:51:39.511Z,15.47
2019-02-28T17:54:20.849Z,19.30
2019-02-28T17:56:59.203Z,19.43
2019-02-28T17:59:38.994Z,18.63
2019-02-28T18:02:09.972Z,20.37
2019-02-28T18:04:56.070Z,23.17
2019-02-28T18:07:26.722Z,22.77
2019-02-28T18:10:00.926Z,19.30
2019-02-28T18:12:35.398Z,21.97
2019-02-28T18:15:13.028Z,23.57
2019-02-28T18:18:18.018Z,20.60
2019-02-28T18:21:05.764Z,21.73
2019-02-28T18:23:53.662Z,18.00
2019-02-28T18:26:41.740Z,26.87
2019-02-28T18:29:16.359Z,25.00
2019-02-28T18:31:44.773Z,22.30
2019-02-28T18:34:13.226Z,27.40
2019-02-28T18:36:43.540Z,24.03
2019-02-28T18:39:12.412Z,30.83
2019-02-28T18:41:42.288Z,28.30
2019-02-28T18:44:11.018Z,24.47
2019-02-28T18:46:39.472Z,31.73
2019-02-28T18:49:07.882Z,21.87
2019-02-28T18:51:36.270Z,27.80
2019-02-28T18:54:04.692Z,24.73
2019-02-28T18:56:33.138Z,26.90
2019-02-28T18:59:01.544Z,28.33
2019-02-28T19:01:29.925Z,32.93
2019-02-28T19:03:58.332Z,30.90
2019-02-28T19:06:26.748Z,33.40
2019-02-28T19:08:55.125Z,35.17
2019-02-28T19:11:23.533Z,31.23
2019-02-28T19:13:51.923Z,32.50
2019-02-28T19:16:20.303Z,33.77
2019-02-28T19:18:48.719Z,35.00
2019-02-28T19:21:17.122Z,34.80
2019-02-28T19:23:45.542Z,37.17
2019-02-28T19:26:13.932Z,31.50
2019-02-28T19:28:42.315Z,43.53
2019-02-28T19:31:10.763Z,41.27
2019-02-28T19:33:39.175Z,40.43
2019-02-28T19:36:07.605Z,33.03
2019-02-28T19:38:36.000Z,39.43
2019-02-28T19:41:04.422Z,44.20
2019-02-28T19:43:32.804Z,39.40
2019-02-28T19:46:01.220Z,38.17
2019-02-28T19:48:29.624Z,34.77
2019-02-28T19:50:58.037Z,41.97
2019-02-28T19:53:26.431Z,29.70
2019-02-28T19:55:56.642Z,31.77
2019-02-28T19:58:24.914Z,36.63
2019-02-28T20:00:53.296Z,38.50
2019-02-28T20:03:21.768Z,31.63
2019-02-28T20:05:50.179Z,32.40
2019-02-28T20:08:18.555Z,33.67
2019-02-28T20:10:47.241Z,37.50
2019-02-28T20:13:15.653Z,34.40
2019-02-28T20:15:44.123Z,36.77
2019-02-28T20:18:12.489Z,36.33
2019-02-28T20:20:40.910Z,36.63
2019-02-28T20:23:09.279Z,32.43
2019-02-28T20:25:37.842Z,35.43
2019-02-28T20:28:06.284Z,30.57
2019-02-28T20:30:34.659Z,34.23
2019-02-28T20:33:03.089Z,28.03
2019-02-28T20:35:31.460Z,33.00
2019-02-28T20:37:59.875Z,30.27
2019-02-28T20:40:30.851Z,27.27
2019-02-28T20:42:59.260Z,32.67
2019-02-28T20:45:27.668Z,26.37
2019-02-28T20:47:57.438Z,29.23
2019-02-28T20:50:47.840Z,37.17
2019-02-28T20:53:16.259Z,24.37
2019-02-28T20:55:44.644Z,28.87
2019-02-28T20:58:13.043Z,27.33
2019-02-28T21:00:41.423Z,33.60
2019-02-28T21:03:09.841Z,31.27
2019-02-28T21:05:38.236Z,31.57
2019-02-28T21:08:06.646Z,31.87
2019-02-28T21:10:35.078Z,34.23
2019-02-28T21:13:03.463Z,30.63
2019-02-28T21:15:31.860Z,27.70
2019-02-28T21:18:00.276Z,34.17
2019-02-28T21:20:28.643Z,24.80
2019-02-28T21:22:57.065Z,34.13
2019-02-28T21:25:25.503Z,24.93
2019-02-28T21:27:53.909Z,27.93
2019-02-28T21:30:26.358Z,31.77
2019-02-28T21:32:54.757Z,30.20
2019-02-28T21:35:24.835Z,30.03
2019-02-28T21:37:53.255Z,29.53
2019-02-28T21:40:22.174Z,31.77
2019-02-28T21:42:50.604Z,32.77
2019-02-28T21:45:24.441Z,21.93
2019-02-28T21:47:52.852Z,35.13
2019-02-28T21:50:21.321Z,25.97
2019-02-28T21:52:49.724Z,36.77
2019-02-28T21:55:18.282Z,34.17
2019-02-28T21:57:46.756Z,32.60
2019-02-28T22:00:25.716Z,35.13
2019-02-28T22:02:54.196Z,36.67
2019-02-28T22:05:22.599Z,34.97
2019-02-28T22:07:50.978Z,33.90
2019-02-28T22:10:19.410Z,34.60
2019-02-28T22:12:47.777Z,33.30
2019-02-28T22:15:24.557Z,42.50
2019-02-28T22:17:52.933Z,36.73
2019-02-28T22:20:21.335Z,30.90
2019-02-28T22:22:49.772Z,32.60
2019-02-28T22:25:18.242Z,31.73
2019-02-28T22:27:46.664Z,29.90
2019-02-28T22:30:37.983Z,36.03
2019-02-28T22:33:08.024Z,29.63
2019-02-28T22:35:38.061Z,37.30
2019-02-28T22:38:06.477Z,35.57
2019-02-28T22:40:34.887Z,29.30
2019-02-28T22:43:03.289Z,34.70
2019-02-28T22:45:31.721Z,27.07
2019-02-28T22:48:00.125Z,25.80
2019-02-28T22:50:28.539Z,31.13
2019-02-28T22:52:56.929Z,41.63
2019-02-28T22:55:25.306Z,48.47
2019-02-28T22:57:53.758Z,36.53
2019-02-28T23:00:38.544Z,45.03
2019-02-28T23:03:07.680Z,56.80
2019-02-28T23:05:36.111Z,62.03
2019-02-28T23:08:04.534Z,85.23
2019-02-28T23:10:32.946Z,98.60
2019-02-28T23:13:01.366Z,93.67
2019-02-28T23:15:29.762Z,88.10
2019-02-28T23:17:58.192Z,93.03
2019-02-28T23:20:26.604Z,97.20
2019-02-28T23:22:55.090Z,92.90
2019-02-28T23:25:23.503Z,93.53
2019-02-28T23:27:53.517Z,95.53
2019-02-28T23:30:55.143Z,98.97
2019-02-28T23:33:23.535Z,93.13
2019-02-28T23:35:51.989Z,102.70
2019-02-28T23:38:20.396Z,121.33
2019-02-28T23:40:48.783Z,127.03
2019-02-28T23:43:18.087Z,145.13
2019-02-28T23:45:46.490Z,160.07
2019-02-28T23:48:14.874Z,170.13
2019-02-28T23:50:43.349Z,194.73
2019-02-28T23:53:11.734Z,228.40
2019-02-28T23:55:40.140Z,199.23
2019-02-28T23:58:08.535Z,212.80
